• Join FlightAware (Why Join?)
  • Login
  • US Flag 
06:44PM EDT


 

Airport Tracker/Info


-or-


 

Live Flight TrackerFlight Track Log ✈ N876MA ✈ 18-Oct-2013 ✈ KAVP - KMTN

Flight Track Log - Related Links

Times and Time Zones

All times are in EDT time to prevent confusion due to time zone crossing. See the N876MA flight status page for this flight to view local times or setup timezone preferences in your user account.

Time Position Orientation Groundspeed Altitude Reporting Facility
EDT Latitude Longitude Course Direction KTS MPH feet Rate Location/Type
05:13PM 41.1883 -75.7889 201° Southwest 256 295 7,800  Level New York Center
05:14PM 41.1203 -75.7728 170° South 274 315 9,000 1,800 Climbing New York Center
05:15PM 41.0458 -75.8114 201° Southwest 266 306 11,500 1,500 Climbing New York Center
05:16PM 40.9669 -75.8522 201° Southwest 290 334 12,000 240 Climbing New York Center
05:17PM 40.9192 -75.8708 201° Southwest  Level Estimated
05:17PM 40.8817 -75.8953 201° Southwest 319 367 12,000  Level New York Center
05:18PM 40.8069 -75.9361 202° Southwest 326 375 12,000  Level New York Center
05:19PM 40.7089 -75.9864 201° Southwest 331 381 12,000  Level New York Center
05:20PM 40.6322 -76.0269 202° Southwest 336 387 12,000  Level New York Center
05:21PM 40.5467 -76.0722 202° Southwest 336 387 12,000  Level New York Center
05:22PM 40.4567 -76.1281 205° Southwest 336 387 12,000  Level New York Center
05:23PM 40.3844 -76.2042 219° Southwest 336 387 12,000  Level New York Center
05:24PM 40.3097 -76.2447 202° Southwest 336 387 12,000 -60 Level New York Center
05:25PM 40.2153 -76.2564 185° South 333 383 11,900 -600 Descending New York Center
05:26PM 40.1122 -76.2725 187° South 345 397 10,900 -720 Descending New York Center
05:28PM 39.9500 -76.3000 187° South 341 392 10,000 -360 Descending Potomac TRACON
05:29PM 39.8500 -76.3167 187° South 328 377 10,000  Level Potomac TRACON
05:30PM 39.7667 -76.3333 189° South 321 369 10,000 -480 Level Potomac TRACON
05:31PM 39.6833 -76.3667 197° South 263 303 9,000 -1,620 Descending Potomac TRACON
05:32PM 39.6333 -76.4167 218° Southwest 264 304 6,800 -2,400 Descending Potomac TRACON
05:33PM 39.5667 -76.4500 201° Southwest 271 312 4,500 -1,740 Descending Potomac TRACON
05:34PM 39.4833 -76.4500 180° South 247 284 3,500 -1,020 Descending Potomac TRACON
05:35PM 39.4333 -76.4333 166° South 233 268 2,500 -900 Descending Potomac TRACON
05:36PM 39.3667 -76.4333 180° South 204 235 1,600 -480 Descending Potomac TRACON
05:37PM 39.3167 -76.4333 180° South 173 199 1,500 -60 Descending Potomac TRACON
05:38PM 39.2667 -76.4167 166° South 177 204 1,500 -300 Level Potomac TRACON
05:39PM 39.2833 -76.3667 67° East 157 181 1,000 -660 Descending Potomac TRACON
05:40PM 39.3167 -76.4000 322° Northwest 128 147 200 -840 Descending Potomac TRACON